sensor_id;sensor_type;location;lat;lon;timestamp;P1;durP1;ratioP1;P2;durP2;ratioP2
20166;SDS011;10243;49.118;8.508;2022-09-09T00:01:58;12.73;;;2.10;;
20166;SDS011;10243;49.118;8.508;2022-09-09T00:05:12;6.38;;;2.20;;
20166;SDS011;10243;49.118;8.508;2022-09-09T00:08:29;6.97;;;2.20;;
20166;SDS011;10243;49.118;8.508;2022-09-09T00:11:47;6.45;;;2.15;;
20166;SDS011;10243;49.118;8.508;2022-09-09T00:14:54;7.85;;;2.13;;
20166;SDS011;10243;49.118;8.508;2022-09-09T00:17:58;6.82;;;2.25;;
20166;SDS011;10243;49.118;8.508;2022-09-09T00:21:05;4.50;;;2.10;;
20166;SDS011;10243;49.118;8.508;2022-09-09T00:24:10;7.35;;;2.08;;
20166;SDS011;10243;49.118;8.508;2022-09-09T00:27:21;4.70;;;2.05;;
20166;SDS011;10243;49.118;8.508;2022-09-09T00:30:34;6.68;;;1.98;;
20166;SDS011;10243;49.118;8.508;2022-09-09T00:33:37;7.05;;;1.92;;
20166;SDS011;10243;49.118;8.508;2022-09-09T00:36:41;10.30;;;2.28;;
20166;SDS011;10243;49.118;8.508;2022-09-09T00:39:45;6.85;;;2.30;;
20166;SDS011;10243;49.118;8.508;2022-09-09T00:42:48;3.35;;;1.98;;
20166;SDS011;10243;49.118;8.508;2022-09-09T00:49:37;5.82;;;2.13;;
20166;SDS011;10243;49.118;8.508;2022-09-09T00:52:47;8.18;;;2.10;;
20166;SDS011;10243;49.118;8.508;2022-09-09T00:55:58;6.00;;;2.00;;
20166;SDS011;10243;49.118;8.508;2022-09-09T00:59:12;3.92;;;2.40;;
20166;SDS011;10243;49.118;8.508;2022-09-09T01:02:28;12.27;;;2.30;;
20166;SDS011;10243;49.118;8.508;2022-09-09T01:05:39;2.80;;;2.22;;
20166;SDS011;10243;49.118;8.508;2022-09-09T01:08:57;8.40;;;2.40;;
20166;SDS011;10243;49.118;8.508;2022-09-09T01:12:09;7.53;;;2.47;;
20166;SDS011;10243;49.118;8.508;2022-09-09T01:15:18;4.88;;;1.98;;
20166;SDS011;10243;49.118;8.508;2022-09-09T01:18:26;4.70;;;2.30;;
20166;SDS011;10243;49.118;8.508;2022-09-09T01:21:33;5.72;;;2.22;;
20166;SDS011;10243;49.118;8.508;2022-09-09T01:24:42;3.38;;;2.20;;
20166;SDS011;10243;49.118;8.508;2022-09-09T01:28:03;10.25;;;2.47;;
20166;SDS011;10243;49.118;8.508;2022-09-09T01:31:11;5.00;;;2.20;;
20166;SDS011;10243;49.118;8.508;2022-09-09T01:34:19;4.45;;;2.17;;
20166;SDS011;10243;49.118;8.508;2022-09-09T01:37:22;6.25;;;2.17;;
20166;SDS011;10243;49.118;8.508;2022-09-09T01:40:25;5.63;;;1.80;;
20166;SDS011;10243;49.118;8.508;2022-09-09T01:43:30;8.52;;;2.13;;
20166;SDS011;10243;49.118;8.508;2022-09-09T01:46:32;4.55;;;1.73;;
20166;SDS011;10243;49.118;8.508;2022-09-09T01:49:35;6.57;;;1.67;;
20166;SDS011;10243;49.118;8.508;2022-09-09T01:52:44;7.60;;;1.80;;
20166;SDS011;10243;49.118;8.508;2022-09-09T01:55:55;5.15;;;1.73;;
20166;SDS011;10243;49.118;8.508;2022-09-09T01:59:15;4.75;;;1.70;;
20166;SDS011;10243;49.118;8.508;2022-09-09T02:02:32;5.30;;;1.40;;
20166;SDS011;10243;49.118;8.508;2022-09-09T02:05:44;7.03;;;1.60;;
20166;SDS011;10243;49.118;8.508;2022-09-09T02:08:56;3.67;;;1.35;;
20166;SDS011;10243;49.118;8.508;2022-09-09T02:12:01;4.53;;;1.63;;
20166;SDS011;10243;49.118;8.508;2022-09-09T02:15:22;9.18;;;1.58;;
20166;SDS011;10243;49.118;8.508;2022-09-09T02:18:29;4.70;;;1.33;;
20166;SDS011;10243;49.118;8.508;2022-09-09T02:21:36;4.78;;;1.48;;
20166;SDS011;10243;49.118;8.508;2022-09-09T02:24:38;6.80;;;1.45;;
20166;SDS011;10243;49.118;8.508;2022-09-09T02:27:52;3.53;;;1.25;;
20166;SDS011;10243;49.118;8.508;2022-09-09T02:30:56;4.82;;;1.48;;
20166;SDS011;10243;49.118;8.508;2022-09-09T02:34:05;5.45;;;1.27;;
20166;SDS011;10243;49.118;8.508;2022-09-09T02:37:11;4.55;;;1.60;;
20166;SDS011;10243;49.118;8.508;2022-09-09T02:40:18;6.15;;;1.17;;
20166;SDS011;10243;49.118;8.508;2022-09-09T02:43:30;6.72;;;1.35;;
20166;SDS011;10243;49.118;8.508;2022-09-09T02:46:39;8.13;;;1.48;;
20166;SDS011;10243;49.118;8.508;2022-09-09T02:49:56;6.53;;;1.08;;
20166;SDS011;10243;49.118;8.508;2022-09-09T02:53:06;4.65;;;1.10;;
20166;SDS011;10243;49.118;8.508;2022-09-09T02:56:14;2.15;;;0.90;;
20166;SDS011;10243;49.118;8.508;2022-09-09T02:59:20;4.80;;;1.00;;
20166;SDS011;10243;49.118;8.508;2022-09-09T03:02:24;5.03;;;1.20;;
20166;SDS011;10243;49.118;8.508;2022-09-09T03:05:32;3.45;;;1.15;;
20166;SDS011;10243;49.118;8.508;2022-09-09T03:08:34;5.65;;;1.00;;
20166;SDS011;10243;49.118;8.508;2022-09-09T03:11:36;5.35;;;0.90;;
20166;SDS011;10243;49.118;8.508;2022-09-09T03:14:40;4.82;;;1.30;;
20166;SDS011;10243;49.118;8.508;2022-09-09T03:17:44;2.70;;;0.90;;
20166;SDS011;10243;49.118;8.508;2022-09-09T03:20:47;2.38;;;1.00;;
20166;SDS011;10243;49.118;8.508;2022-09-09T03:23:50;8.23;;;0.90;;
20166;SDS011;10243;49.118;8.508;2022-09-09T03:26:52;3.50;;;0.95;;
20166;SDS011;10243;49.118;8.508;2022-09-09T03:29:55;3.33;;;0.52;;
20166;SDS011;10243;49.118;8.508;2022-09-09T03:33:00;3.13;;;0.82;;
20166;SDS011;10243;49.118;8.508;2022-09-09T03:36:06;3.00;;;0.90;;
20166;SDS011;10243;49.118;8.508;2022-09-09T03:39:09;3.15;;;0.90;;
20166;SDS011;10243;49.118;8.508;2022-09-09T03:42:14;3.97;;;1.00;;
20166;SDS011;10243;49.118;8.508;2022-09-09T03:45:19;3.05;;;1.00;;
20166;SDS011;10243;49.118;8.508;2022-09-09T03:48:23;1.75;;;0.90;;
20166;SDS011;10243;49.118;8.508;2022-09-09T03:51:26;1.83;;;0.98;;
20166;SDS011;10243;49.118;8.508;2022-09-09T03:54:28;2.20;;;0.80;;
20166;SDS011;10243;49.118;8.508;2022-09-09T03:57:30;2.55;;;1.10;;
20166;SDS011;10243;49.118;8.508;2022-09-09T04:00:35;3.15;;;0.90;;
20166;SDS011;10243;49.118;8.508;2022-09-09T04:03:43;3.53;;;0.90;;
20166;SDS011;10243;49.118;8.508;2022-09-09T04:06:46;2.80;;;1.00;;
20166;SDS011;10243;49.118;8.508;2022-09-09T04:09:48;2.13;;;0.82;;
20166;SDS011;10243;49.118;8.508;2022-09-09T04:12:50;1.67;;;1.00;;
20166;SDS011;10243;49.118;8.508;2022-09-09T04:15:53;4.50;;;1.13;;
20166;SDS011;10243;49.118;8.508;2022-09-09T04:18:58;6.13;;;1.00;;
20166;SDS011;10243;49.118;8.508;2022-09-09T04:22:01;6.45;;;1.20;;
20166;SDS011;10243;49.118;8.508;2022-09-09T04:25:03;4.53;;;0.90;;
20166;SDS011;10243;49.118;8.508;2022-09-09T04:28:06;2.15;;;1.08;;
20166;SDS011;10243;49.118;8.508;2022-09-09T04:31:08;2.50;;;0.90;;
20166;SDS011;10243;49.118;8.508;2022-09-09T04:34:21;3.33;;;0.93;;
20166;SDS011;10243;49.118;8.508;2022-09-09T04:37:23;1.33;;;0.90;;
20166;SDS011;10243;49.118;8.508;2022-09-09T04:40:25;1.35;;;0.90;;
20166;SDS011;10243;49.118;8.508;2022-09-09T04:43:28;3.25;;;1.00;;
20166;SDS011;10243;49.118;8.508;2022-09-09T04:46:32;3.65;;;1.02;;
20166;SDS011;10243;49.118;8.508;2022-09-09T04:49:36;1.83;;;0.98;;
20166;SDS011;10243;49.118;8.508;2022-09-09T04:52:39;3.03;;;1.08;;
20166;SDS011;10243;49.118;8.508;2022-09-09T04:55:41;3.58;;;1.35;;
20166;SDS011;10243;49.118;8.508;2022-09-09T04:58:43;6.55;;;1.10;;
20166;SDS011;10243;49.118;8.508;2022-09-09T05:01:46;2.45;;;1.00;;
20166;SDS011;10243;49.118;8.508;2022-09-09T05:04:49;3.58;;;1.20;;
20166;SDS011;10243;49.118;8.508;2022-09-09T05:07:51;4.65;;;1.10;;
20166;SDS011;10243;49.118;8.508;2022-09-09T05:10:53;3.45;;;1.15;;
20166;SDS011;10243;49.118;8.508;2022-09-09T05:13:55;2.83;;;1.00;;
20166;SDS011;10243;49.118;8.508;2022-09-09T05:16:57;5.03;;;1.30;;
20166;SDS011;10243;49.118;8.508;2022-09-09T05:20:01;1.63;;;0.95;;
20166;SDS011;10243;49.118;8.508;2022-09-09T05:23:04;4.25;;;1.20;;
20166;SDS011;10243;49.118;8.508;2022-09-09T05:26:09;2.30;;;1.08;;
20166;SDS011;10243;49.118;8.508;2022-09-09T05:29:14;5.13;;;1.15;;
20166;SDS011;10243;49.118;8.508;2022-09-09T05:32:18;2.60;;;1.05;;
20166;SDS011;10243;49.118;8.508;2022-09-09T05:35:24;4.00;;;1.27;;
20166;SDS011;10243;49.118;8.508;2022-09-09T05:38:26;6.03;;;1.30;;
20166;SDS011;10243;49.118;8.508;2022-09-09T05:41:29;7.10;;;1.20;;
20166;SDS011;10243;49.118;8.508;2022-09-09T05:44:34;6.95;;;1.27;;
20166;SDS011;10243;49.118;8.508;2022-09-09T05:47:37;3.80;;;1.05;;
20166;SDS011;10243;49.118;8.508;2022-09-09T05:50:43;4.22;;;1.20;;
20166;SDS011;10243;49.118;8.508;2022-09-09T05:53:54;2.53;;;1.20;;
20166;SDS011;10243;49.118;8.508;2022-09-09T05:56:59;1.77;;;0.95;;
20166;SDS011;10243;49.118;8.508;2022-09-09T06:00:01;3.30;;;0.82;;
20166;SDS011;10243;49.118;8.508;2022-09-09T06:03:14;4.68;;;1.00;;
20166;SDS011;10243;49.118;8.508;2022-09-09T06:06:19;5.35;;;1.30;;
20166;SDS011;10243;49.118;8.508;2022-09-09T06:09:22;3.53;;;1.00;;
20166;SDS011;10243;49.118;8.508;2022-09-09T06:12:25;4.50;;;1.25;;
20166;SDS011;10243;49.118;8.508;2022-09-09T06:15:27;1.33;;;1.00;;
20166;SDS011;10243;49.118;8.508;2022-09-09T06:18:30;3.40;;;1.00;;
20166;SDS011;10243;49.118;8.508;2022-09-09T06:21:34;7.25;;;1.20;;
20166;SDS011;10243;49.118;8.508;2022-09-09T06:24:40;3.17;;;1.10;;
20166;SDS011;10243;49.118;8.508;2022-09-09T06:27:42;3.85;;;1.13;;
20166;SDS011;10243;49.118;8.508;2022-09-09T06:30:44;5.40;;;1.30;;
20166;SDS011;10243;49.118;8.508;2022-09-09T06:33:47;2.70;;;1.20;;
20166;SDS011;10243;49.118;8.508;2022-09-09T06:36:52;5.28;;;1.02;;
20166;SDS011;10243;49.118;8.508;2022-09-09T06:39:53;7.43;;;1.40;;
20166;SDS011;10243;49.118;8.508;2022-09-09T06:42:58;5.90;;;1.27;;
20166;SDS011;10243;49.118;8.508;2022-09-09T06:46:13;5.63;;;1.10;;
20166;SDS011;10243;49.118;8.508;2022-09-09T06:49:16;1.98;;;1.00;;
20166;SDS011;10243;49.118;8.508;2022-09-09T06:52:20;2.72;;;1.20;;
20166;SDS011;10243;49.118;8.508;2022-09-09T06:55:22;5.63;;;1.13;;
20166;SDS011;10243;49.118;8.508;2022-09-09T06:58:24;7.70;;;3.90;;
20166;SDS011;10243;49.118;8.508;2022-09-09T07:01:28;4.38;;;1.20;;
20166;SDS011;10243;49.118;8.508;2022-09-09T07:04:34;5.07;;;1.38;;
20166;SDS011;10243;49.118;8.508;2022-09-09T07:07:39;7.00;;;1.25;;
20166;SDS011;10243;49.118;8.508;2022-09-09T07:10:42;7.63;;;1.25;;
20166;SDS011;10243;49.118;8.508;2022-09-09T07:13:45;6.00;;;1.38;;
20166;SDS011;10243;49.118;8.508;2022-09-09T07:16:48;4.28;;;1.30;;
20166;SDS011;10243;49.118;8.508;2022-09-09T07:19:51;4.03;;;1.02;;
20166;SDS011;10243;49.118;8.508;2022-09-09T07:22:55;7.97;;;1.67;;
20166;SDS011;10243;49.118;8.508;2022-09-09T07:25:59;4.50;;;1.40;;
20166;SDS011;10243;49.118;8.508;2022-09-09T07:29:02;3.72;;;1.40;;
20166;SDS011;10243;49.118;8.508;2022-09-09T07:32:04;8.30;;;1.50;;
20166;SDS011;10243;49.118;8.508;2022-09-09T07:35:10;3.65;;;1.30;;
20166;SDS011;10243;49.118;8.508;2022-09-09T07:38:13;5.72;;;1.48;;
20166;SDS011;10243;49.118;8.508;2022-09-09T07:41:16;4.10;;;1.10;;
20166;SDS011;10243;49.118;8.508;2022-09-09T07:44:21;6.03;;;1.40;;
20166;SDS011;10243;49.118;8.508;2022-09-09T07:47:32;8.77;;;1.58;;
20166;SDS011;10243;49.118;8.508;2022-09-09T07:50:34;5.63;;;1.50;;
20166;SDS011;10243;49.118;8.508;2022-09-09T07:53:37;6.28;;;1.30;;
20166;SDS011;10243;49.118;8.508;2022-09-09T07:56:40;7.28;;;1.52;;
20166;SDS011;10243;49.118;8.508;2022-09-09T07:59:43;4.35;;;1.45;;
20166;SDS011;10243;49.118;8.508;2022-09-09T08:02:47;2.85;;;1.35;;
20166;SDS011;10243;49.118;8.508;2022-09-09T08:05:49;9.50;;;1.58;;
20166;SDS011;10243;49.118;8.508;2022-09-09T08:08:53;7.93;;;1.90;;
20166;SDS011;10243;49.118;8.508;2022-09-09T08:11:57;8.20;;;1.55;;
20166;SDS011;10243;49.118;8.508;2022-09-09T08:15:00;8.95;;;1.42;;
20166;SDS011;10243;49.118;8.508;2022-09-09T08:18:06;5.05;;;1.40;;
20166;SDS011;10243;49.118;8.508;2022-09-09T08:21:09;4.97;;;1.55;;
20166;SDS011;10243;49.118;8.508;2022-09-09T08:24:14;7.90;;;1.63;;
20166;SDS011;10243;49.118;8.508;2022-09-09T08:27:20;8.02;;;1.67;;
20166;SDS011;10243;49.118;8.508;2022-09-09T08:30:23;3.70;;;1.38;;
20166;SDS011;10243;49.118;8.508;2022-09-09T08:33:25;2.58;;;1.30;;
20166;SDS011;10243;49.118;8.508;2022-09-09T08:36:27;4.13;;;1.48;;
20166;SDS011;10243;49.118;8.508;2022-09-09T08:39:32;7.75;;;1.42;;
20166;SDS011;10243;49.118;8.508;2022-09-09T08:42:35;5.40;;;1.58;;
20166;SDS011;10243;49.118;8.508;2022-09-09T08:45:43;16.05;;;1.80;;
20166;SDS011;10243;49.118;8.508;2022-09-09T08:48:56;7.18;;;1.10;;
20166;SDS011;10243;49.118;8.508;2022-09-09T08:52:03;5.05;;;1.70;;
20166;SDS011;10243;49.118;8.508;2022-09-09T08:55:15;5.00;;;1.35;;
20166;SDS011;10243;49.118;8.508;2022-09-09T08:58:27;5.70;;;1.50;;
20166;SDS011;10243;49.118;8.508;2022-09-09T09:01:38;8.85;;;1.60;;
20166;SDS011;10243;49.118;8.508;2022-09-09T09:04:54;3.58;;;1.20;;
20166;SDS011;10243;49.118;8.508;2022-09-09T09:08:05;5.70;;;1.33;;
20166;SDS011;10243;49.118;8.508;2022-09-09T09:11:18;4.80;;;1.30;;
20166;SDS011;10243;49.118;8.508;2022-09-09T09:14:23;6.35;;;1.42;;
20166;SDS011;10243;49.118;8.508;2022-09-09T09:17:31;6.75;;;1.30;;
20166;SDS011;10243;49.118;8.508;2022-09-09T09:20:38;4.55;;;1.40;;
20166;SDS011;10243;49.118;8.508;2022-09-09T09:23:51;7.18;;;1.48;;
20166;SDS011;10243;49.118;8.508;2022-09-09T09:27:00;5.68;;;1.58;;
20166;SDS011;10243;49.118;8.508;2022-09-09T09:30:15;6.78;;;1.50;;
20166;SDS011;10243;49.118;8.508;2022-09-09T09:33:20;5.20;;;1.40;;
20166;SDS011;10243;49.118;8.508;2022-09-09T09:36:25;7.28;;;1.38;;
20166;SDS011;10243;49.118;8.508;2022-09-09T09:39:37;8.57;;;1.30;;
20166;SDS011;10243;49.118;8.508;2022-09-09T09:42:48;9.95;;;1.50;;
20166;SDS011;10243;49.118;8.508;2022-09-09T09:45:53;7.13;;;1.30;;
20166;SDS011;10243;49.118;8.508;2022-09-09T09:48:59;6.57;;;1.40;;
20166;SDS011;10243;49.118;8.508;2022-09-09T09:52:04;5.35;;;1.20;;
20166;SDS011;10243;49.118;8.508;2022-09-09T09:55:11;4.20;;;1.05;;
20166;SDS011;10243;49.118;8.508;2022-09-09T09:58:17;4.65;;;1.60;;
20166;SDS011;10243;49.118;8.508;2022-09-09T10:01:20;4.68;;;1.25;;
20166;SDS011;10243;49.118;8.508;2022-09-09T10:04:25;3.90;;;1.35;;
20166;SDS011;10243;49.118;8.508;2022-09-09T10:07:29;6.57;;;1.30;;
20166;SDS011;10243;49.118;8.508;2022-09-09T10:10:35;6.03;;;1.13;;
20166;SDS011;10243;49.118;8.508;2022-09-09T10:13:53;8.18;;;1.70;;
20166;SDS011;10243;49.118;8.508;2022-09-09T10:17:06;7.65;;;1.20;;
20166;SDS011;10243;49.118;8.508;2022-09-09T10:20:21;5.80;;;1.08;;
20166;SDS011;10243;49.118;8.508;2022-09-09T10:23:37;4.55;;;1.50;;
20166;SDS011;10243;49.118;8.508;2022-09-09T10:26:52;4.65;;;1.08;;
20166;SDS011;10243;49.118;8.508;2022-09-09T10:30:04;1.95;;;0.98;;
20166;SDS011;10243;49.118;8.508;2022-09-09T10:33:14;3.90;;;1.20;;
20166;SDS011;10243;49.118;8.508;2022-09-09T10:36:23;7.63;;;1.30;;
20166;SDS011;10243;49.118;8.508;2022-09-09T10:39:31;8.20;;;1.25;;
20166;SDS011;10243;49.118;8.508;2022-09-09T10:42:37;9.95;;;1.92;;
20166;SDS011;10243;49.118;8.508;2022-09-09T10:45:44;4.13;;;1.33;;
20166;SDS011;10243;49.118;8.508;2022-09-09T10:48:59;9.48;;;1.25;;
20166;SDS011;10243;49.118;8.508;2022-09-09T10:52:13;4.85;;;1.38;;
20166;SDS011;10243;49.118;8.508;2022-09-09T10:55:23;4.72;;;1.40;;
20166;SDS011;10243;49.118;8.508;2022-09-09T10:58:31;6.13;;;1.27;;
20166;SDS011;10243;49.118;8.508;2022-09-09T11:01:39;6.90;;;1.60;;
20166;SDS011;10243;49.118;8.508;2022-09-09T11:04:45;7.68;;;1.88;;
20166;SDS011;10243;49.118;8.508;2022-09-09T11:07:54;4.55;;;1.30;;
20166;SDS011;10243;49.118;8.508;2022-09-09T11:11:00;5.45;;;1.33;;
20166;SDS011;10243;49.118;8.508;2022-09-09T11:14:05;6.78;;;1.35;;
20166;SDS011;10243;49.118;8.508;2022-09-09T11:17:15;4.68;;;1.40;;
20166;SDS011;10243;49.118;8.508;2022-09-09T11:20:19;2.60;;;1.00;;
20166;SDS011;10243;49.118;8.508;2022-09-09T11:23:22;3.70;;;1.20;;
20166;SDS011;10243;49.118;8.508;2022-09-09T11:26:30;2.97;;;1.08;;
20166;SDS011;10243;49.118;8.508;2022-09-09T11:29:47;3.65;;;0.98;;
20166;SDS011;10243;49.118;8.508;2022-09-09T11:33:26;6.22;;;1.30;;
20166;SDS011;10243;49.118;8.508;2022-09-09T11:36:55;2.75;;;1.02;;
20166;SDS011;10243;49.118;8.508;2022-09-09T11:40:08;3.60;;;0.90;;
20166;SDS011;10243;49.118;8.508;2022-09-09T11:43:21;4.55;;;1.33;;
20166;SDS011;10243;49.118;8.508;2022-09-09T11:46:31;6.50;;;1.13;;
20166;SDS011;10243;49.118;8.508;2022-09-09T11:49:41;5.18;;;1.05;;
20166;SDS011;10243;49.118;8.508;2022-09-09T11:52:45;5.35;;;1.10;;
20166;SDS011;10243;49.118;8.508;2022-09-09T11:56:02;3.13;;;1.30;;
20166;SDS011;10243;49.118;8.508;2022-09-09T11:59:19;3.22;;;1.40;;
20166;SDS011;10243;49.118;8.508;2022-09-09T12:02:23;4.22;;;1.27;;
20166;SDS011;10243;49.118;8.508;2022-09-09T12:05:36;3.28;;;1.20;;
20166;SDS011;10243;49.118;8.508;2022-09-09T12:08:41;5.88;;;1.60;;
20166;SDS011;10243;49.118;8.508;2022-09-09T12:11:45;5.13;;;1.30;;
20166;SDS011;10243;49.118;8.508;2022-09-09T12:14:54;4.40;;;1.38;;
20166;SDS011;10243;49.118;8.508;2022-09-09T12:18:01;6.93;;;1.45;;
20166;SDS011;10243;49.118;8.508;2022-09-09T12:21:06;2.90;;;1.20;;
20166;SDS011;10243;49.118;8.508;2022-09-09T12:24:17;4.40;;;1.10;;
20166;SDS011;10243;49.118;8.508;2022-09-09T12:27:25;4.88;;;1.20;;
20166;SDS011;10243;49.118;8.508;2022-09-09T12:30:34;3.22;;;1.00;;
20166;SDS011;10243;49.118;8.508;2022-09-09T12:33:45;4.82;;;1.30;;
20166;SDS011;10243;49.118;8.508;2022-09-09T12:36:50;7.10;;;1.20;;
20166;SDS011;10243;49.118;8.508;2022-09-09T12:39:59;5.72;;;1.02;;
20166;SDS011;10243;49.118;8.508;2022-09-09T12:43:14;8.98;;;1.38;;
20166;SDS011;10243;49.118;8.508;2022-09-09T12:46:25;5.55;;;1.48;;
20166;SDS011;10243;49.118;8.508;2022-09-09T12:49:34;4.18;;;1.40;;
20166;SDS011;10243;49.118;8.508;2022-09-09T12:52:40;13.63;;;1.50;;
20166;SDS011;10243;49.118;8.508;2022-09-09T12:55:48;13.70;;;1.58;;
20166;SDS011;10243;49.118;8.508;2022-09-09T12:58:52;5.78;;;1.45;;
20166;SDS011;10243;49.118;8.508;2022-09-09T13:01:56;7.43;;;1.63;;
20166;SDS011;10243;49.118;8.508;2022-09-09T13:05:06;9.18;;;1.90;;
20166;SDS011;10243;49.118;8.508;2022-09-09T13:08:16;7.40;;;1.48;;
20166;SDS011;10243;49.118;8.508;2022-09-09T13:11:21;4.88;;;1.50;;
20166;SDS011;10243;49.118;8.508;2022-09-09T13:14:26;6.63;;;1.63;;
20166;SDS011;10243;49.118;8.508;2022-09-09T13:17:32;3.78;;;0.90;;
20166;SDS011;10243;49.118;8.508;2022-09-09T13:20:34;9.20;;;1.35;;
20166;SDS011;10243;49.118;8.508;2022-09-09T13:23:38;9.43;;;1.02;;
20166;SDS011;10243;49.118;8.508;2022-09-09T13:26:40;3.42;;;1.15;;
20166;SDS011;10243;49.118;8.508;2022-09-09T13:29:50;5.55;;;0.77;;
20166;SDS011;10243;49.118;8.508;2022-09-09T13:33:06;5.45;;;1.00;;
20166;SDS011;10243;49.118;8.508;2022-09-09T13:36:27;3.85;;;1.30;;
20166;SDS011;10243;49.118;8.508;2022-09-09T13:39:33;3.45;;;0.90;;
20166;SDS011;10243;49.118;8.508;2022-09-09T13:42:38;7.60;;;0.80;;
20166;SDS011;10243;49.118;8.508;2022-09-09T13:45:51;1.55;;;0.70;;
20166;SDS011;10243;49.118;8.508;2022-09-09T13:48:56;2.35;;;0.90;;
20166;SDS011;10243;49.118;8.508;2022-09-09T13:52:03;2.78;;;0.85;;
20166;SDS011;10243;49.118;8.508;2022-09-09T13:55:09;4.40;;;0.82;;
20166;SDS011;10243;49.118;8.508;2022-09-09T13:58:14;3.28;;;0.95;;
20166;SDS011;10243;49.118;8.508;2022-09-09T14:01:18;2.63;;;0.95;;
20166;SDS011;10243;49.118;8.508;2022-09-09T14:04:20;1.85;;;0.68;;
20166;SDS011;10243;49.118;8.508;2022-09-09T14:07:22;1.70;;;0.82;;
20166;SDS011;10243;49.118;8.508;2022-09-09T14:10:26;7.80;;;0.98;;
20166;SDS011;10243;49.118;8.508;2022-09-09T14:13:28;2.83;;;1.00;;
20166;SDS011;10243;49.118;8.508;2022-09-09T14:16:30;3.72;;;0.73;;
20166;SDS011;10243;49.118;8.508;2022-09-09T14:19:32;9.00;;;1.42;;
20166;SDS011;10243;49.118;8.508;2022-09-09T14:22:37;3.30;;;1.20;;
20166;SDS011;10243;49.118;8.508;2022-09-09T14:25:42;3.25;;;1.13;;
20166;SDS011;10243;49.118;8.508;2022-09-09T14:28:44;4.65;;;1.30;;
20166;SDS011;10243;49.118;8.508;2022-09-09T14:31:46;3.72;;;0.90;;
20166;SDS011;10243;49.118;8.508;2022-09-09T14:34:48;1.98;;;0.50;;
20166;SDS011;10243;49.118;8.508;2022-09-09T14:37:50;3.95;;;0.63;;
20166;SDS011;10243;49.118;8.508;2022-09-09T14:40:53;2.35;;;0.77;;
20166;SDS011;10243;49.118;8.508;2022-09-09T14:43:56;3.03;;;0.88;;
20166;SDS011;10243;49.118;8.508;2022-09-09T14:46:58;2.80;;;1.02;;
20166;SDS011;10243;49.118;8.508;2022-09-09T14:49:59;7.10;;;1.00;;
20166;SDS011;10243;49.118;8.508;2022-09-09T14:53:04;4.55;;;1.10;;
20166;SDS011;10243;49.118;8.508;2022-09-09T14:56:08;3.90;;;1.17;;
20166;SDS011;10243;49.118;8.508;2022-09-09T14:59:11;5.28;;;1.27;;
20166;SDS011;10243;49.118;8.508;2022-09-09T15:02:13;4.78;;;1.25;;
20166;SDS011;10243;49.118;8.508;2022-09-09T15:05:15;4.40;;;1.02;;
20166;SDS011;10243;49.118;8.508;2022-09-09T15:08:17;3.28;;;1.30;;
20166;SDS011;10243;49.118;8.508;2022-09-09T15:11:20;3.50;;;1.08;;
20166;SDS011;10243;49.118;8.508;2022-09-09T15:14:25;4.95;;;1.38;;
20166;SDS011;10243;49.118;8.508;2022-09-09T15:17:27;6.50;;;1.83;;
20166;SDS011;10243;49.118;8.508;2022-09-09T15:20:29;5.82;;;1.30;;
20166;SDS011;10243;49.118;8.508;2022-09-09T15:23:31;4.90;;;1.27;;
20166;SDS011;10243;49.118;8.508;2022-09-09T15:26:34;4.47;;;1.30;;
20166;SDS011;10243;49.118;8.508;2022-09-09T15:29:42;4.32;;;1.50;;
20166;SDS011;10243;49.118;8.508;2022-09-09T15:32:45;2.88;;;1.10;;
20166;SDS011;10243;49.118;8.508;2022-09-09T15:35:48;3.38;;;1.10;;
20166;SDS011;10243;49.118;8.508;2022-09-09T15:38:54;5.03;;;1.20;;
20166;SDS011;10243;49.118;8.508;2022-09-09T15:42:02;2.28;;;1.00;;
20166;SDS011;10243;49.118;8.508;2022-09-09T15:45:04;2.00;;;0.85;;
20166;SDS011;10243;49.118;8.508;2022-09-09T15:48:07;3.70;;;0.98;;
20166;SDS011;10243;49.118;8.508;2022-09-09T15:51:08;2.30;;;1.00;;
20166;SDS011;10243;49.118;8.508;2022-09-09T15:54:11;1.65;;;0.85;;
20166;SDS011;10243;49.118;8.508;2022-09-09T15:57:17;3.30;;;1.02;;
20166;SDS011;10243;49.118;8.508;2022-09-09T16:00:19;4.72;;;1.30;;
20166;SDS011;10243;49.118;8.508;2022-09-09T16:03:23;5.30;;;1.38;;
20166;SDS011;10243;49.118;8.508;2022-09-09T16:06:25;4.05;;;1.63;;
20166;SDS011;10243;49.118;8.508;2022-09-09T16:09:28;14.95;;;1.70;;
20166;SDS011;10243;49.118;8.508;2022-09-09T16:12:33;5.90;;;1.70;;
20166;SDS011;10243;49.118;8.508;2022-09-09T16:15:35;4.60;;;1.30;;
20166;SDS011;10243;49.118;8.508;2022-09-09T16:18:37;11.10;;;1.27;;
20166;SDS011;10243;49.118;8.508;2022-09-09T16:21:41;9.20;;;1.58;;
20166;SDS011;10243;49.118;8.508;2022-09-09T16:24:47;3.42;;;1.13;;
20166;SDS011;10243;49.118;8.508;2022-09-09T16:27:51;3.13;;;1.20;;
20166;SDS011;10243;49.118;8.508;2022-09-09T16:30:53;3.22;;;1.35;;
20166;SDS011;10243;49.118;8.508;2022-09-09T16:33:55;8.23;;;1.23;;
20166;SDS011;10243;49.118;8.508;2022-09-09T16:36:58;2.05;;;1.13;;
20166;SDS011;10243;49.118;8.508;2022-09-09T16:40:01;2.85;;;1.10;;
20166;SDS011;10243;49.118;8.508;2022-09-09T16:43:06;2.22;;;1.30;;
20166;SDS011;10243;49.118;8.508;2022-09-09T16:46:11;6.38;;;1.83;;
20166;SDS011;10243;49.118;8.508;2022-09-09T16:49:15;7.55;;;1.48;;
20166;SDS011;10243;49.118;8.508;2022-09-09T16:52:17;2.88;;;1.00;;
20166;SDS011;10243;49.118;8.508;2022-09-09T16:55:19;7.05;;;1.35;;
20166;SDS011;10243;49.118;8.508;2022-09-09T16:58:22;4.70;;;1.02;;
20166;SDS011;10243;49.118;8.508;2022-09-09T17:01:24;3.65;;;0.80;;
20166;SDS011;10243;49.118;8.508;2022-09-09T17:04:27;2.65;;;1.20;;
20166;SDS011;10243;49.118;8.508;2022-09-09T17:07:31;6.13;;;1.40;;
20166;SDS011;10243;49.118;8.508;2022-09-09T17:10:33;2.22;;;1.02;;
20166;SDS011;10243;49.118;8.508;2022-09-09T17:13:36;4.70;;;1.05;;
20166;SDS011;10243;49.118;8.508;2022-09-09T17:16:38;4.78;;;1.20;;
20166;SDS011;10243;49.118;8.508;2022-09-09T17:19:40;5.72;;;1.30;;
20166;SDS011;10243;49.118;8.508;2022-09-09T17:22:42;2.95;;;1.00;;
20166;SDS011;10243;49.118;8.508;2022-09-09T17:25:44;5.20;;;1.08;;
20166;SDS011;10243;49.118;8.508;2022-09-09T17:28:47;6.25;;;1.52;;
20166;SDS011;10243;49.118;8.508;2022-09-09T17:31:49;2.65;;;0.93;;
20166;SDS011;10243;49.118;8.508;2022-09-09T17:34:51;5.60;;;1.00;;
20166;SDS011;10243;49.118;8.508;2022-09-09T17:37:53;4.03;;;1.27;;
20166;SDS011;10243;49.118;8.508;2022-09-09T17:41:02;2.80;;;1.17;;
20166;SDS011;10243;49.118;8.508;2022-09-09T17:44:07;3.22;;;1.08;;
20166;SDS011;10243;49.118;8.508;2022-09-09T17:47:10;2.78;;;1.15;;
20166;SDS011;10243;49.118;8.508;2022-09-09T17:50:11;3.03;;;1.10;;
20166;SDS011;10243;49.118;8.508;2022-09-09T17:53:13;2.55;;;1.00;;
20166;SDS011;10243;49.118;8.508;2022-09-09T17:56:17;3.50;;;1.10;;
20166;SDS011;10243;49.118;8.508;2022-09-09T17:59:21;2.13;;;0.93;;
20166;SDS011;10243;49.118;8.508;2022-09-09T18:02:25;2.00;;;0.95;;
20166;SDS011;10243;49.118;8.508;2022-09-09T18:05:27;4.00;;;1.35;;
20166;SDS011;10243;49.118;8.508;2022-09-09T18:08:30;2.10;;;1.20;;
20166;SDS011;10243;49.118;8.508;2022-09-09T18:11:34;3.63;;;1.55;;
20166;SDS011;10243;49.118;8.508;2022-09-09T18:14:39;3.78;;;1.40;;
20166;SDS011;10243;49.118;8.508;2022-09-09T18:17:41;2.03;;;1.15;;
20166;SDS011;10243;49.118;8.508;2022-09-09T18:20:43;2.90;;;1.13;;
20166;SDS011;10243;49.118;8.508;2022-09-09T18:23:45;3.47;;;1.30;;
20166;SDS011;10243;49.118;8.508;2022-09-09T18:26:51;5.20;;;1.42;;
20166;SDS011;10243;49.118;8.508;2022-09-09T18:29:55;3.83;;;1.30;;
20166;SDS011;10243;49.118;8.508;2022-09-09T18:32:57;4.43;;;1.17;;
20166;SDS011;10243;49.118;8.508;2022-09-09T18:36:02;5.00;;;1.40;;
20166;SDS011;10243;49.118;8.508;2022-09-09T18:39:05;2.75;;;1.38;;
20166;SDS011;10243;49.118;8.508;2022-09-09T18:42:07;3.40;;;1.60;;
20166;SDS011;10243;49.118;8.508;2022-09-09T18:45:13;1.65;;;1.15;;